createdAt,value
2024-05-09T01:34:00.552Z,6.80
2024-05-09T01:54:37.028Z,6.65
2024-05-09T02:05:02.237Z,8.52
2024-05-09T02:36:58.857Z,7.65
2024-05-09T02:47:32.230Z,8.32
2024-05-09T02:57:40.643Z,8.90
2024-05-09T03:29:12.727Z,8.55
2024-05-09T03:39:34.586Z,7.22
2024-05-09T03:49:53.788Z,8.57
2024-05-09T04:00:38.073Z,9.30
2024-05-09T04:10:41.810Z,12.82
2024-05-09T04:20:43.973Z,9.38
2024-05-09T04:30:46.157Z,9.35
2024-05-09T04:40:48.266Z,10.27
2024-05-09T04:50:53.103Z,11.07
2024-05-09T05:00:55.271Z,9.52
2024-05-09T05:10:57.455Z,10.35
2024-05-09T05:20:59.657Z,7.25
2024-05-09T05:31:01.641Z,8.93
2024-05-09T05:41:04.025Z,9.75
2024-05-09T05:51:06.355Z,11.27
2024-05-09T06:01:08.330Z,10.18
2024-05-09T06:11:10.420Z,11.40
2024-05-09T06:21:12.621Z,8.70
2024-05-09T06:31:14.614Z,7.18
2024-05-09T06:41:18.061Z,8.27
2024-05-09T06:51:20.223Z,9.23
2024-05-09T07:01:22.552Z,8.80
2024-05-09T07:11:24.752Z,8.85
2024-05-09T07:21:26.791Z,9.68
2024-05-09T07:31:28.784Z,8.32
2024-05-09T07:41:31.442Z,6.85
2024-05-09T07:53:13.754Z,8.98
2024-05-09T08:01:55.819Z,7.55
2024-05-09T08:11:58.039Z,7.72
2024-05-09T08:22:00.250Z,7.20
2024-05-09T08:32:02.361Z,8.73
2024-05-09T08:42:07.955Z,8.52
2024-05-09T08:52:10.197Z,6.93
2024-05-09T09:02:14.279Z,6.22
2024-05-09T09:12:16.509Z,6.30
2024-05-09T09:22:18.842Z,6.55
2024-05-09T09:32:34.246Z,6.93
2024-05-09T09:42:37.943Z,6.45
2024-05-09T09:52:43.288Z,6.68
2024-05-09T10:02:45.453Z,8.23
2024-05-09T10:13:08.676Z,7.65
2024-05-09T10:23:28.514Z,8.23
2024-05-09T10:33:45.526Z,6.68
2024-05-09T10:43:48.569Z,6.13
2024-05-09T10:53:50.821Z,7.25
2024-05-09T11:03:53.283Z,7.75
2024-05-09T11:13:55.659Z,8.68
2024-05-09T11:23:58.853Z,9.32
2024-05-09T11:34:01.479Z,7.75
2024-05-09T11:44:03.557Z,8.63
2024-05-09T11:54:05.645Z,7.43
2024-05-09T12:04:08.729Z,9.23
2024-05-09T12:14:11.005Z,7.75
2024-05-09T12:24:15.242Z,9.18
2024-05-09T12:34:19.086Z,8.05
2024-05-09T12:44:21.222Z,7.50
2024-05-09T12:54:23.374Z,6.57
2024-05-09T13:04:25.930Z,6.15
2024-05-09T13:14:28.125Z,6.68
2024-05-09T13:24:30.413Z,5.55
2024-05-09T13:34:32.658Z,6.28
2024-05-09T13:44:34.782Z,6.65
2024-05-09T13:54:36.842Z,5.38
2024-05-09T14:04:39.462Z,5.45
2024-05-09T14:14:44.507Z,4.65
2024-05-09T14:24:49.623Z,4.50
2024-05-09T14:34:53.524Z,4.43
2024-05-09T14:44:55.650Z,4.57
2024-05-09T14:55:00.591Z,4.43
2024-05-09T15:05:03.984Z,5.10
2024-05-09T15:15:06.677Z,6.43
2024-05-09T15:25:08.905Z,5.57
2024-05-09T15:35:11.132Z,4.30
2024-05-09T15:45:13.198Z,4.68
2024-05-09T15:55:15.135Z,4.10
2024-05-09T16:05:17.237Z,3.70
2024-05-09T16:15:19.399Z,4.22
2024-05-09T16:25:21.579Z,4.68
2024-05-09T16:58:21.656Z,4.05
2024-05-09T17:08:27.443Z,4.35
2024-05-09T18:27:25.664Z,4.32
